Flight Track Log - Related Links

Times and Time Zones

All times are in EDT time to prevent confusion due to time zone crossing. See the N244A flight status page for this flight to view local times or setup timezone preferences in your user account.

Time Position Orientation Groundspeed Altitude Reporting Facility
EDT Latitude Longitude Course Direction KTS MPH feet Rate Location/Type
Fri 01:08:33 PM 39.1167 -84.4000 72° East 192 221 1,300  Level Cincinnati TRACON
Fri 01:09:27 PM 39.1333 -84.3333 72° East 247 284 3,600 2,516 Climbing Cincinnati TRACON
Fri 01:10:06 PM 39.1014 -84.3014 142° Southeast 241 277 5,200 2,911 Climbing Indianapolis Center
Fri 01:11:08 PM 39.0256 -84.2872 172° South 273 314 8,500 2,855 Climbing Indianapolis Center
Fri 01:12:10 PM 38.9672 -84.3483 219° Southwest 297 342 11,100 2,371 Climbing Indianapolis Center
Fri 01:13:12 PM 38.9747 -84.4678 275° West 331 381 13,400 2,226 Climbing Indianapolis Center
Fri 01:14:14 PM 39.0058 -84.5944 288° West 365 420 15,700 2,371 Climbing Indianapolis Center
Fri 01:15:16 PM 39.0533 -84.7536 291° West 394 453 18,300 2,613 Climbing Indianapolis Center
Fri 01:16:18 PM 39.0856 -84.8914 287° West 399 459 21,100 2,274 Climbing Indianapolis Center
Fri 01:17:20 PM 39.1194 -85.0286 288° West 402 463 23,000 1,742 Climbing Indianapolis Center
Fri 01:18:22 PM 39.1575 -85.1714 289° West 416 479 24,700 1,452 Climbing Indianapolis Center
Fri 01:19:24 PM 39.1914 -85.3178 287° West 424 488 26,000 629 Climbing Indianapolis Center
Fri 01:20:26 PM 39.2489 -85.4642 297° West 455 524 26,000  Level Indianapolis Center
Fri 01:21:28 PM 39.3506 -85.6211 310° West 474 545 26,000  Level Indianapolis Center
Fri 01:22:30 PM 39.4364 -85.7547 310° West 482 555 26,000  Level Indianapolis Center
Fri 01:23:32 PM 39.5228 -85.8931 309° West 492 566 26,000  Level Indianapolis Center
Fri 01:24:34 PM 39.6086 -86.0283 309° West 490 564 26,000  Level Indianapolis Center
Fri 01:25:36 PM 39.6933 -86.1653 309° West 490 564 26,000  Level Indianapolis Center
Fri 01:26:38 PM 39.7794 -86.3042 309° West 490 564 26,000  Level Indianapolis Center
Fri 01:27:40 PM 39.8875 -86.4336 317° Northwest 478 550 26,000 -339 Level Indianapolis Center
Fri 01:28:42 PM 39.9944 -86.5322 325° Northwest 473 544 25,300 -968 Descending Indianapolis Center
Fri 01:29:44 PM 40.1017 -86.6322 325° Northwest 474 545 24,000 -724 Descending Indianapolis Center
Fri 01:30:38 PM 40.2064 -86.7347 323° Northwest 471 542 23,900 -776 Descending Chicago Center
Fri 01:31:40 PM 40.3100 -86.8283 325° Northwest 460 529 22,500 -1,790 Descending Chicago Center
Fri 01:32:42 PM 40.4308 -86.8739 344° North 455 524 20,200 -2,081 Descending Chicago Center
Fri 01:33:44 PM 40.5469 -86.9086 347° North 430 495 18,200 -1,935 Descending Chicago Center
Fri 01:34:46 PM 40.6653 -86.9850 334° Northwest 395 455 16,200 -1,790 Descending Chicago Center
Fri 01:35:48 PM 40.7569 -87.0600 328° Northwest 395 455 14,500 -1,645 Descending Chicago Center
Fri 01:36:50 PM 40.8511 -87.1308 330° Northwest 392 451 12,800 -1,584 Descending Chicago Center
Fri 01:37:53 PM 40.9469 -87.1808 338° Northwest 368 423 11,200 -1,680 Descending Chicago Center
Fri 01:38:55 PM 41.0578 -87.1942 355° North 330 380 9,300 -2,032 Descending Chicago Center
Fri 01:39:57 PM 41.1347 -87.2075 353° North 285 328 7,000 -2,226 Descending Chicago Center
Fri 01:40:59 PM 41.2083 -87.2219 352° North 274 315 4,700 -1,452 Descending Chicago Center
Fri 01:42:01 PM 41.2825 -87.2322 354° North 271 312 4,000 -339 Descending Chicago Center
Fri 01:43:03 PM 41.3583 -87.2458 352° North 273 314 4,000  Level Chicago Center
Fri 01:44:05 PM 41.4489 -87.2664 350° North 276 318 4,000  Level Chicago Center
Fri 01:45:07 PM 41.5239 -87.2761 354° North 275 316 4,000  Level Chicago Center
Fri 01:46:09 PM 41.5944 -87.3081 341° North 272 313 4,000  Level Chicago Center
Fri 01:47:11 PM 41.6656 -87.3381 343° North 272 313 4,000 -290 Level Chicago Center
Fri 01:48:13 PM 41.7542 -87.3692 345° North 273 314 3,400 -480 Descending Chicago Center
Fri 01:49:16 PM 41.8272 -87.3994 343° North 275 316 3,000 -192 Descending Chicago Center
Fri 01:50:18 PM 41.8989 -87.4314 342° North 275 316 3,000  Level Chicago Center
Fri 01:51:20 PM 41.9731 -87.4578 345° North 277 319 3,000  Level Chicago Center
Fri 01:52:22 PM 42.0469 -87.4864 344° North 277 319 3,000 -48 Level Chicago Center
Fri 01:53:24 PM 42.1228 -87.5458 330° Northwest 273 314 2,900  Descending Chicago Center
Fri 01:54:26 PM 42.1658 -87.6317 304° West 278 320 3,000 48 Climbing Chicago Center
Fri 01:55:28 PM 42.2086 -87.7142 305° West 274 315 3,000 -48 Level Chicago Center
Fri 01:56:30 PM 42.2531 -87.7928 307° West 269 310 2,900 -242 Descending Chicago Center
Fri 01:57:32 PM 42.2714 -87.8864 285° West 260 299 2,500 -194 Descending Chicago Center
Fri 01:58:34 PM 42.2525 -87.9853 256° West 267 307 2,500 -48 Level Chicago Center
Fri 01:59:36 PM 42.1997 -87.9433 150° Southeast 247 284 2,400 -581 Descending Chicago Center
Fri 02:00:38 PM 42.1542 -87.9250 163° South 224 258 1,300 -774 Descending Chicago Center
Fri 02:01:40 PM 42.1094 -87.8997 157° South 199 229 800 -484 Descending Chicago Center

Login

Don't have an account? Register now (free) for customized features, flight alerts, and more!